Time;durP1;ratioP1;P1;durP2;ratioP2;P2;SDS_P1;SDS_P2;PMS_P1;PMS_P2;Temp;Humidity;BMP_temperature;BMP_pressure;BME280_temperature;BME280_humidity;BME280_pressure;Samples;Min_cycle;Max_cycle;Signal;HPM_P1;HPM_P2
2022/04/30 00:05:47;;;;;;;23.42;9.83;;;;;;;;;;4292056;81;28546;-76
2022/04/30 00:11:48;;;;;;;19.15;9.88;;;;;;;;;;4295678;81;28533;-76
2022/04/30 00:17:51;;;;;;;19.80;9.05;;;;;;;;;;4269273;81;28952;-76
2022/04/30 00:23:52;;;;;;;17.90;8.95;;;;;;;;;;4224071;83;28501;-75
2022/04/30 00:29:54;;;;;;;20.23;9.65;;;;;;;;;;4217514;83;28510;-75
2022/04/30 00:35:55;;;;;;;17.02;9.30;;;;;;;;;;4221837;83;28546;-75
2022/04/30 00:41:56;;;;;;;18.25;10.28;;;;;;;;;;4224131;83;28510;-74
2022/04/30 00:47:57;;;;;;;20.30;10.43;;;;;;;;;;4224181;83;28518;-74
2022/04/30 00:53:58;;;;;;;21.30;10.60;;;;;;;;;;4227504;83;29083;-74
2022/04/30 01:00:00;;;;;;;24.15;11.10;;;;;;;;;;4212879;83;28522;-74
2022/04/30 01:06:01;;;;;;;21.70;10.50;;;;;;;;;;4228614;83;28563;-75
2022/04/30 01:12:06;;;;;;;19.73;10.40;;;;;;;;;;4223620;83;28503;-75
2022/04/30 01:18:08;;;;;;;19.90;10.03;;;;;;;;;;4251597;81;28525;-75
2022/04/30 01:24:09;;;;;;;21.80;10.43;;;;;;;;;;4291340;81;28492;-75
2022/04/30 01:30:11;;;;;;;17.48;9.70;;;;;;;;;;4295309;81;28586;-76
2022/04/30 01:42:35;;;;;;;22.77;10.55;;;;;;;;;;4169356;83;28595;-76
2022/04/30 01:48:36;;;;;;;21.62;10.50;;;;;;;;;;4300771;81;28552;-76
2022/04/30 01:54:37;;;;;;;25.45;11.12;;;;;;;;;;4303091;81;28542;-76
2022/04/30 02:00:37;;;;;;;21.48;10.93;;;;;;;;;;4291534;81;28475;-76
2022/04/30 02:06:39;;;;;;;19.67;10.75;;;;;;;;;;4302228;81;28519;-76
2022/04/30 02:12:40;;;;;;;18.42;10.40;;;;;;;;;;4301526;81;28561;-76
2022/04/30 02:18:41;;;;;;;17.65;10.32;;;;;;;;;;4303595;81;28563;-76
2022/04/30 02:24:42;;;;;;;21.33;11.50;;;;;;;;;;4306641;81;28549;-76
2022/04/30 02:30:43;;;;;;;24.60;11.80;;;;;;;;;;4299147;81;28510;-75
2022/04/30 02:36:44;;;;;;;25.40;12.85;;;;;;;;;;4287082;81;28528;-75
2022/04/30 02:42:45;;;;;;;24.12;11.78;;;;;;;;;;4302022;81;28550;-75
2022/04/30 02:48:47;;;;;;;19.95;11.68;;;;;;;;;;4300987;81;28523;-76
2022/04/30 02:54:48;;;;;;;22.20;11.28;;;;;;;;;;4319204;81;28500;-75
2022/04/30 03:00:51;;;;;;;19.10;10.68;;;;;;;;;;4306250;81;28545;-76
2022/04/30 03:07:12;;;;;;;23.00;11.50;;;;;;;;;;4289313;81;28523;-75
2022/04/30 03:13:14;;;;;;;23.57;12.55;;;;;;;;;;4302611;82;28528;-75
2022/04/30 03:25:34;;;;;;;23.92;12.50;;;;;;;;;;4219905;83;28548;-75
2022/04/30 03:31:35;;;;;;;21.77;11.90;;;;;;;;;;4266721;82;28608;-74
2022/04/30 03:37:36;;;;;;;22.25;11.50;;;;;;;;;;4227618;83;28559;-75
2022/04/30 03:43:37;;;;;;;22.95;11.38;;;;;;;;;;4285643;82;28527;-74
2022/04/30 03:49:38;;;;;;;22.73;11.40;;;;;;;;;;4278646;82;28535;-75
2022/04/30 03:55:39;;;;;;;21.12;11.90;;;;;;;;;;4301757;81;28532;-75
2022/04/30 04:01:40;;;;;;;23.30;12.05;;;;;;;;;;4219957;83;28514;-75
2022/04/30 04:07:42;;;;;;;21.87;11.63;;;;;;;;;;4231330;82;28560;-74
2022/04/30 04:20:03;;;;;;;22.20;11.90;;;;;;;;;;4231532;82;28485;-73
2022/04/30 04:26:04;;;;;;;19.50;11.85;;;;;;;;;;4239412;82;28555;-73
2022/04/30 04:32:05;;;;;;;19.92;10.65;;;;;;;;;;4234646;82;28510;-74
2022/04/30 04:38:06;;;;;;;23.95;12.23;;;;;;;;;;4229236;82;28520;-74
2022/04/30 04:44:08;;;;;;;24.87;12.53;;;;;;;;;;4237807;82;28516;-75
2022/04/30 04:50:10;;;;;;;23.73;13.00;;;;;;;;;;4238798;82;28534;-74
2022/04/30 04:56:11;;;;;;;25.50;14.10;;;;;;;;;;4239032;82;28556;-74
2022/04/30 05:02:11;;;;;;;26.23;14.33;;;;;;;;;;4238613;82;28518;-74
2022/04/30 05:08:12;;;;;;;27.27;14.28;;;;;;;;;;4239698;83;28486;-76
2022/04/30 05:14:13;;;;;;;30.17;15.35;;;;;;;;;;4235510;82;28953;-77
2022/04/30 05:20:14;;;;;;;32.17;16.05;;;;;;;;;;4245048;82;28531;-78
2022/04/30 05:26:15;;;;;;;31.62;16.52;;;;;;;;;;4255077;82;28507;-77
2022/04/30 05:32:16;;;;;;;27.58;15.58;;;;;;;;;;4246405;82;28464;-74
2022/04/30 05:38:16;;;;;;;29.75;15.85;;;;;;;;;;4253371;82;28460;-75
2022/04/30 05:44:17;;;;;;;28.47;16.17;;;;;;;;;;4248402;82;28530;-74
2022/04/30 05:50:18;;;;;;;25.60;14.83;;;;;;;;;;4243823;83;28519;-74
2022/04/30 05:56:19;;;;;;;28.15;14.85;;;;;;;;;;4248850;83;28547;-75
2022/04/30 06:02:20;;;;;;;25.17;14.28;;;;;;;;;;4253106;82;28499;-73
2022/04/30 06:08:21;;;;;;;23.75;14.15;;;;;;;;;;4246892;82;28634;-74
2022/04/30 06:14:22;;;;;;;25.12;14.40;;;;;;;;;;4252969;82;28507;-75
2022/04/30 06:20:22;;;;;;;23.95;14.80;;;;;;;;;;4249424;82;28523;-75
2022/04/30 06:26:23;;;;;;;27.07;15.00;;;;;;;;;;4246022;82;28501;-75
2022/04/30 06:32:24;;;;;;;28.55;14.53;;;;;;;;;;4250037;82;28606;-75
2022/04/30 06:38:25;;;;;;;26.12;13.75;;;;;;;;;;4255129;82;28485;-75
2022/04/30 06:44:26;;;;;;;27.07;14.73;;;;;;;;;;4246555;82;28519;-75
2022/04/30 06:50:27;;;;;;;22.35;13.18;;;;;;;;;;4238339;82;28522;-75
2022/04/30 07:02:48;;;;;;;21.17;12.00;;;;;;;;;;4242041;82;28483;-74
2022/04/30 07:08:48;;;;;;;20.05;11.68;;;;;;;;;;4254971;82;28538;-75
2022/04/30 07:14:50;;;;;;;20.37;11.60;;;;;;;;;;4245123;82;28536;-73
2022/04/30 07:20:53;;;;;;;19.00;9.40;;;;;;;;;;4245849;82;28553;-75
2022/04/30 07:26:53;;;;;;;20.75;9.98;;;;;;;;;;4250178;82;28550;-75
2022/04/30 07:32:54;;;;;;;17.20;9.88;;;;;;;;;;4246499;82;28539;-76
2022/04/30 07:38:55;;;;;;;16.23;9.15;;;;;;;;;;4251625;82;28497;-76
2022/04/30 07:44:59;;;;;;;17.15;9.23;;;;;;;;;;4244092;83;28539;-74
2022/04/30 07:50:59;;;;;;;14.85;7.47;;;;;;;;;;4254941;82;28483;-75
2022/04/30 07:57:00;;;;;;;15.30;6.95;;;;;;;;;;4248347;82;28527;-77
2022/04/30 08:03:01;;;;;;;13.05;7.08;;;;;;;;;;4247188;83;28626;-76
2022/04/30 08:09:02;;;;;;;13.55;7.35;;;;;;;;;;4272941;82;28526;-76
2022/04/30 08:15:03;;;;;;;13.75;7.05;;;;;;;;;;4285552;82;28512;-78
2022/04/30 08:21:04;;;;;;;13.98;7.58;;;;;;;;;;4288993;82;28572;-78
2022/04/30 08:27:05;;;;;;;12.18;7.42;;;;;;;;;;4228507;83;28517;-78
2022/04/30 08:33:06;;;;;;;16.48;7.28;;;;;;;;;;4230120;83;28542;-77
2022/04/30 08:39:07;;;;;;;12.80;7.42;;;;;;;;;;4210671;83;28493;-78
2022/04/30 08:45:09;;;;;;;14.43;7.33;;;;;;;;;;4264073;83;28487;-78
2022/04/30 08:51:10;;;;;;;12.90;6.95;;;;;;;;;;4259602;83;28559;-77
2022/04/30 08:57:11;;;;;;;11.45;6.70;;;;;;;;;;4265798;82;28554;-76
2022/04/30 09:03:15;;;;;;;12.58;6.30;;;;;;;;;;4258162;82;28497;-78
2022/04/30 09:09:28;;;;;;;9.53;5.90;;;;;;;;;;4265006;82;28536;-77
2022/04/30 09:15:29;;;;;;;8.45;5.12;;;;;;;;;;4253117;82;28556;-76
2022/04/30 09:21:30;;;;;;;8.18;5.55;;;;;;;;;;4224656;82;28564;-76
2022/04/30 09:27:32;;;;;;;10.10;5.80;;;;;;;;;;4254189;82;28522;-76
2022/04/30 09:33:33;;;;;;;9.30;4.85;;;;;;;;;;4165433;84;28501;-77
2022/04/30 09:39:34;;;;;;;12.43;5.65;;;;;;;;;;4286361;81;28520;-78
2022/04/30 09:45:35;;;;;;;8.63;5.10;;;;;;;;;;4281150;82;28531;-76
2022/04/30 09:57:57;;;;;;;10.20;4.65;;;;;;;;;;4273289;82;28520;-77
2022/04/30 10:03:58;;;;;;;7.50;4.85;;;;;;;;;;4284310;81;28556;-76
2022/04/30 10:10:10;;;;;;;9.88;5.10;;;;;;;;;;4276483;82;28551;-75
2022/04/30 10:16:13;;;;;;;12.00;5.47;;;;;;;;;;4296821;81;28531;-74
2022/04/30 10:22:15;;;;;;;10.60;5.90;;;;;;;;;;4272412;82;28551;-74
2022/04/30 10:28:17;;;;;;;9.53;5.20;;;;;;;;;;4280645;81;28518;-76
2022/04/30 10:34:20;;;;;;;10.95;5.60;;;;;;;;;;4297441;82;28480;-74
2022/04/30 10:40:21;;;;;;;12.45;4.97;;;;;;;;;;4298290;82;28546;-74
2022/04/30 10:46:23;;;;;;;8.75;5.08;;;;;;;;;;4309165;82;28464;-74
2022/04/30 10:52:25;;;;;;;9.65;5.50;;;;;;;;;;4311998;82;28504;-74
2022/04/30 10:58:27;;;;;;;9.40;5.05;;;;;;;;;;4314167;81;28485;-74
2022/04/30 11:04:29;;;;;;;9.25;4.78;;;;;;;;;;4300406;81;28456;-74
2022/04/30 11:10:31;;;;;;;7.60;4.78;;;;;;;;;;4299118;81;28503;-74
2022/04/30 11:16:32;;;;;;;8.03;4.80;;;;;;;;;;4297924;83;28523;-75
2022/04/30 11:22:33;;;;;;;7.95;4.78;;;;;;;;;;4288683;81;28504;-74
2022/04/30 11:28:34;;;;;;;8.55;4.65;;;;;;;;;;4278461;81;28512;-74
2022/04/30 11:34:37;;;;;;;8.93;4.92;;;;;;;;;;4298282;81;28455;-74
2022/04/30 11:40:42;;;;;;;10.63;4.92;;;;;;;;;;4220612;83;28548;-75
2022/04/30 11:46:44;;;;;;;7.87;4.92;;;;;;;;;;4219017;83;28569;-74
2022/04/30 11:52:45;;;;;;;10.38;5.25;;;;;;;;;;4270746;82;28521;-76
2022/04/30 11:58:46;;;;;;;7.05;4.92;;;;;;;;;;4274826;82;28521;-78
2022/04/30 12:04:49;;;;;;;9.60;5.50;;;;;;;;;;4262274;82;28550;-78
2022/04/30 12:10:56;;;;;;;6.45;4.60;;;;;;;;;;4271644;82;28479;-74
2022/04/30 12:16:58;;;;;;;6.55;4.28;;;;;;;;;;4258683;82;28534;-75
2022/04/30 12:29:26;;;;;;;8.08;4.40;;;;;;;;;;4207681;83;28485;-75
2022/04/30 12:35:35;;;;;;;8.80;4.95;;;;;;;;;;4224445;83;28470;-75
2022/04/30 12:41:37;;;;;;;7.03;4.67;;;;;;;;;;4198323;84;28543;-76
2022/04/30 12:47:39;;;;;;;8.33;4.87;;;;;;;;;;4195907;85;28484;-76
2022/04/30 12:53:40;;;;;;;8.05;4.40;;;;;;;;;;4183044;85;28508;-76
2022/04/30 12:59:42;;;;;;;6.55;3.85;;;;;;;;;;4192801;83;28467;-76
2022/04/30 13:05:43;;;;;;;8.30;4.35;;;;;;;;;;4194151;85;28511;-76
2022/04/30 13:18:04;;;;;;;9.25;4.35;;;;;;;;;;4206753;84;28539;-75
2022/04/30 13:24:05;;;;;;;7.30;4.37;;;;;;;;;;4217360;84;28514;-78
2022/04/30 13:30:07;;;;;;;7.17;5.08;;;;;;;;;;4230990;83;28502;-76
2022/04/30 13:36:09;;;;;;;6.62;4.62;;;;;;;;;;4214523;84;28498;-76
2022/04/30 13:42:09;;;;;;;7.37;4.58;;;;;;;;;;4226091;83;28530;-74
2022/04/30 13:48:10;;;;;;;8.43;4.90;;;;;;;;;;4226426;83;28526;-74
2022/04/30 13:54:11;;;;;;;6.65;4.60;;;;;;;;;;4159875;85;28512;-75
2022/04/30 14:00:16;;;;;;;11.03;5.50;;;;;;;;;;4162104;84;28611;-77
2022/04/30 14:06:15;;;;;;;9.23;4.78;;;;;;;;;;4159287;84;28531;-75
2022/04/30 14:12:17;;;;;;;6.25;4.75;;;;;;;;;;4233850;83;28541;-77
2022/04/30 14:18:24;;;;;;;8.13;4.87;;;;;;;;;;4210777;83;28467;-75
2022/04/30 14:24:24;;;;;;;9.80;5.30;;;;;;;;;;4218374;83;28511;-75
2022/04/30 14:30:25;;;;;;;7.03;4.35;;;;;;;;;;4288974;82;28622;-76
2022/04/30 14:36:25;;;;;;;7.90;5.00;;;;;;;;;;4290210;82;28477;-78
2022/04/30 14:42:26;;;;;;;9.55;5.35;;;;;;;;;;4289946;82;28545;-75
2022/04/30 14:48:27;;;;;;;7.47;4.78;;;;;;;;;;4285477;81;28497;-76
2022/04/30 14:54:28;;;;;;;7.72;4.97;;;;;;;;;;4284269;81;28564;-77
2022/04/30 15:00:29;;;;;;;8.75;5.20;;;;;;;;;;4288540;82;28506;-79
2022/04/30 15:06:30;;;;;;;8.23;4.72;;;;;;;;;;4202296;83;28501;-74
2022/04/30 15:12:31;;;;;;;7.33;4.90;;;;;;;;;;4283365;81;28550;-73
2022/04/30 15:18:32;;;;;;;7.92;4.90;;;;;;;;;;4207341;83;28547;-73
2022/04/30 15:24:33;;;;;;;8.03;5.40;;;;;;;;;;4223148;83;28551;-73
2022/04/30 15:30:34;;;;;;;10.43;5.17;;;;;;;;;;4233910;83;28533;-74
2022/04/30 15:36:43;;;;;;;8.95;5.28;;;;;;;;;;4218154;83;28526;-75
2022/04/30 15:42:41;;;;;;;9.33;5.45;;;;;;;;;;4294630;81;28538;-75
2022/04/30 15:55:03;;;;;;;9.83;4.72;;;;;;;;;;4296744;81;28455;-73
2022/04/30 16:01:04;;;;;;;7.87;5.60;;;;;;;;;;4311292;81;28612;-77
2022/04/30 16:07:05;;;;;;;7.42;4.15;;;;;;;;;;4301480;81;28522;-77
2022/04/30 16:13:06;;;;;;;9.73;5.50;;;;;;;;;;4306578;81;28574;-78
2022/04/30 16:19:06;;;;;;;7.90;4.33;;;;;;;;;;4297096;81;28577;-77
2022/04/30 16:25:09;;;;;;;8.38;4.60;;;;;;;;;;4252191;81;28553;-80
2022/04/30 16:31:10;;;;;;;7.17;4.35;;;;;;;;;;4225255;83;28518;-79
2022/04/30 16:37:10;;;;;;;7.45;4.37;;;;;;;;;;4227290;83;28534;-81
2022/04/30 16:43:11;;;;;;;8.45;4.85;;;;;;;;;;4212735;83;28544;-78
2022/04/30 16:49:12;;;;;;;8.53;5.22;;;;;;;;;;4219526;83;28483;-78
2022/04/30 17:01:34;;;;;;;8.40;4.25;;;;;;;;;;4224071;83;21187;-81
2022/04/30 17:07:37;;;;;;;7.55;4.45;;;;;;;;;;4228575;83;28518;-79
2022/04/30 17:13:39;;;;;;;8.35;5.00;;;;;;;;;;4223508;83;28534;-80
2022/04/30 17:19:41;;;;;;;6.40;4.45;;;;;;;;;;4223875;83;28581;-77
2022/04/30 17:25:42;;;;;;;10.00;4.87;;;;;;;;;;4271673;81;28529;-80
2022/04/30 17:38:02;;;;;;;9.25;4.22;;;;;;;;;;4293693;81;28454;-78
2022/04/30 17:44:03;;;;;;;7.85;3.67;;;;;;;;;;4282748;81;28482;-79
2022/04/30 17:50:05;;;;;;;7.75;4.00;;;;;;;;;;4289566;81;28498;-80
2022/04/30 17:56:06;;;;;;;8.83;5.22;;;;;;;;;;4296127;81;28518;-79
2022/04/30 18:02:06;;;;;;;17.98;10.43;;;;;;;;;;4289119;82;28498;-77
2022/04/30 18:08:07;;;;;;;13.40;7.97;;;;;;;;;;4167891;83;28564;-78
2022/04/30 18:14:10;;;;;;;10.40;5.25;;;;;;;;;;4227304;81;28529;-77
2022/04/30 18:20:13;;;;;;;8.65;5.58;;;;;;;;;;4253413;82;28562;-72
2022/04/30 18:26:14;;;;;;;13.68;6.72;;;;;;;;;;4251805;81;28588;-76
2022/04/30 18:32:15;;;;;;;11.08;5.60;;;;;;;;;;4299457;81;28530;-74
2022/04/30 18:38:16;;;;;;;8.18;4.58;;;;;;;;;;4298384;81;28499;-73
2022/04/30 18:44:20;;;;;;;11.97;5.20;;;;;;;;;;4299704;81;28510;-75
2022/04/30 18:50:21;;;;;;;8.20;4.80;;;;;;;;;;4226033;83;28509;-74
2022/04/30 19:02:43;;;;;;;8.10;4.28;;;;;;;;;;4233953;83;28495;-74
2022/04/30 19:08:45;;;;;;;6.75;4.12;;;;;;;;;;4260627;83;28588;-78
2022/04/30 19:14:46;;;;;;;7.92;3.98;;;;;;;;;;4289968;81;28552;-74
2022/04/30 19:20:47;;;;;;;7.15;4.20;;;;;;;;;;4289915;81;28600;-74
2022/04/30 19:26:48;;;;;;;8.33;4.17;;;;;;;;;;4259811;81;28518;-74
2022/04/30 19:32:49;;;;;;;10.60;4.85;;;;;;;;;;4252721;81;28663;-74
2022/04/30 19:38:50;;;;;;;11.12;4.70;;;;;;;;;;4248373;81;28532;-74
2022/04/30 19:44:51;;;;;;;77.08;48.60;;;;;;;;;;4262709;82;28536;-75
2022/04/30 19:50:52;;;;;;;37.42;23.83;;;;;;;;;;4254869;82;28467;-73
2022/04/30 19:56:55;;;;;;;23.45;11.65;;;;;;;;;;4167229;83;28533;-74
2022/04/30 20:02:59;;;;;;;16.23;6.55;;;;;;;;;;4300698;81;28593;-74
2022/04/30 20:09:00;;;;;;;11.50;6.37;;;;;;;;;;4299683;81;28514;-73
2022/04/30 20:21:09;;;;;;;13.40;5.72;;;;;;;;;;4271844;81;28562;-74
2022/04/30 20:27:10;;;;;;;11.18;5.42;;;;;;;;;;4300749;81;28578;-74
2022/04/30 20:39:32;;;;;;;18.67;8.18;;;;;;;;;;4295759;81;28499;-76
2022/04/30 20:45:33;;;;;;;17.55;8.00;;;;;;;;;;4303481;81;28569;-75
2022/04/30 20:51:35;;;;;;;81.57;39.42;;;;;;;;;;4301358;81;28507;-72
2022/04/30 20:57:36;;;;;;;32.28;17.65;;;;;;;;;;4299995;81;28579;-73
2022/04/30 21:03:36;;;;;;;22.17;10.23;;;;;;;;;;4290726;81;28470;-72
2022/04/30 21:09:37;;;;;;;16.62;8.13;;;;;;;;;;4300375;81;28538;-75
2022/04/30 21:15:40;;;;;;;220.90;102.90;;;;;;;;;;4305659;81;28531;-73
2022/04/30 21:21:41;;;;;;;77.65;36.70;;;;;;;;;;4297334;81;28539;-74
2022/04/30 21:27:44;;;;;;;32.60;15.80;;;;;;;;;;4297747;81;28543;-75
2022/04/30 21:33:45;;;;;;;27.00;12.70;;;;;;;;;;4297003;81;28559;-74
2022/04/30 21:39:46;;;;;;;20.32;10.53;;;;;;;;;;4297455;81;28502;-72
2022/04/30 21:45:48;;;;;;;30.05;14.93;;;;;;;;;;4299244;81;28523;-74
2022/04/30 21:51:50;;;;;;;24.35;10.78;;;;;;;;;;4296778;81;28533;-74
2022/04/30 22:04:10;;;;;;;16.57;8.98;;;;;;;;;;4302237;81;28527;-75
2022/04/30 22:10:12;;;;;;;18.10;9.28;;;;;;;;;;4299762;81;28547;-74
2022/04/30 22:16:16;;;;;;;14.38;7.80;;;;;;;;;;4299945;81;28496;-74
2022/04/30 22:22:16;;;;;;;15.05;8.08;;;;;;;;;;4299868;81;28555;-73
2022/04/30 22:28:21;;;;;;;15.50;8.20;;;;;;;;;;4299216;81;28557;-74
2022/04/30 22:34:22;;;;;;;16.80;8.68;;;;;;;;;;4291491;81;28535;-74
2022/04/30 22:46:42;;;;;;;18.50;8.90;;;;;;;;;;4296107;81;28552;-73
2022/04/30 22:52:44;;;;;;;20.80;12.33;;;;;;;;;;4299403;81;28507;-74
2022/04/30 22:58:45;;;;;;;17.62;11.30;;;;;;;;;;4299293;81;28581;-74
2022/04/30 23:04:45;;;;;;;20.85;11.00;;;;;;;;;;4300125;81;28494;-74
2022/04/30 23:10:46;;;;;;;20.23;10.48;;;;;;;;;;4297766;81;28554;-74
2022/04/30 23:16:47;;;;;;;17.48;10.03;;;;;;;;;;4300167;81;28518;-73
2022/04/30 23:22:48;;;;;;;21.02;11.20;;;;;;;;;;4298859;81;28508;-74
2022/04/30 23:28:49;;;;;;;18.02;11.22;;;;;;;;;;4296341;82;28545;-74
2022/04/30 23:34:50;;;;;;;22.13;12.13;;;;;;;;;;4294741;82;28601;-74
2022/04/30 23:40:51;;;;;;;22.73;12.07;;;;;;;;;;4298662;82;28547;-74
2022/04/30 23:46:55;;;;;;;25.10;11.90;;;;;;;;;;4297170;82;28527;-74
2022/04/30 23:52:56;;;;;;;22.77;12.50;;;;;;;;;;4288848;82;28535;-74
2022/04/30 23:58:57;;;;;;;23.15;11.45;;;;;;;;;;4291904;81;28582;-73
